createdAt,value
2022-12-15T00:02:35.065Z,0.03
2022-12-15T00:05:22.522Z,0.08
2022-12-15T00:08:08.910Z,0.09
2022-12-15T00:10:54.134Z,0.13
2022-12-15T00:13:39.742Z,0.00
2022-12-15T00:16:25.535Z,0.05
2022-12-15T00:19:11.371Z,-0.10
2022-12-15T00:21:57.839Z,-0.06
2022-12-15T00:24:42.958Z,-0.13
2022-12-15T00:27:28.383Z,0.10
2022-12-15T00:30:14.681Z,0.20
2022-12-15T00:33:00.101Z,0.02
2022-12-15T00:35:45.407Z,-0.04
2022-12-15T00:38:33.675Z,0.03
2022-12-15T00:41:01.675Z,-0.01
2022-12-15T00:43:30.579Z,-0.03
2022-12-15T00:46:16.347Z,-0.05
2022-12-15T00:48:45.048Z,0.05
2022-12-15T00:51:12.593Z,-0.07
2022-12-15T00:54:00.127Z,-0.13
2022-12-15T00:56:45.726Z,-0.08
2022-12-15T00:59:31.077Z,-0.03
2022-12-15T01:02:16.834Z,0.00
2022-12-15T01:05:02.288Z,0.04
2022-12-15T01:07:49.903Z,-0.14
2022-12-15T01:10:37.156Z,-0.15
2022-12-15T01:13:23.238Z,-0.27
2022-12-15T01:16:08.897Z,-0.35
2022-12-15T01:18:54.244Z,-0.24
2022-12-15T01:21:25.108Z,-0.26
2022-12-15T01:23:53.783Z,-0.32
2022-12-15T01:26:22.960Z,-0.25
2022-12-15T01:28:50.758Z,-0.07
2022-12-15T01:31:18.607Z,-0.28
2022-12-15T01:33:46.437Z,-0.16
2022-12-15T01:36:14.494Z,-0.22
2022-12-15T01:38:42.710Z,-0.24
2022-12-15T01:41:12.425Z,-0.27
2022-12-15T01:43:41.999Z,-0.34
2022-12-15T01:46:12.439Z,-0.38
2022-12-15T01:48:44.337Z,-0.36
2022-12-15T01:51:17.114Z,-0.39
2022-12-15T01:53:56.550Z,-0.36
2022-12-15T01:56:26.341Z,-0.21
2022-12-15T01:59:01.685Z,-0.21
2022-12-15T02:01:29.761Z,-0.28
2022-12-15T02:03:57.799Z,-0.39
2022-12-15T02:06:27.425Z,-0.43
2022-12-15T02:08:58.158Z,-0.46
2022-12-15T02:11:44.564Z,-0.45
2022-12-15T02:14:19.868Z,-0.47
2022-12-15T02:17:08.527Z,-0.37
2022-12-15T02:20:17.924Z,-0.53
2022-12-15T02:23:08.937Z,-0.49
2022-12-15T02:26:11.518Z,-0.59
2022-12-15T02:28:53.698Z,-0.73
2022-12-15T02:31:45.275Z,-0.70
2022-12-15T02:34:23.982Z,-0.72
2022-12-15T02:36:57.840Z,-0.72
2022-12-15T02:39:26.524Z,-0.61
2022-12-15T02:41:54.558Z,-0.56
2022-12-15T02:44:27.772Z,-0.70
2022-12-15T02:47:11.613Z,-0.83
2022-12-15T02:49:49.961Z,-0.79
2022-12-15T02:52:34.616Z,-0.82
2022-12-15T02:55:17.483Z,-0.96
2022-12-15T02:57:54.281Z,-0.96
2022-12-15T03:00:23.717Z,-0.99
2022-12-15T03:02:55.523Z,-0.77
2022-12-15T03:05:25.341Z,-0.90
2022-12-15T03:07:54.212Z,-0.81
2022-12-15T03:10:24.693Z,-0.96
2022-12-15T03:12:54.426Z,-0.85
2022-12-15T03:15:22.712Z,-0.63
2022-12-15T03:17:52.432Z,-0.65
2022-12-15T03:20:20.697Z,-0.82
2022-12-15T03:22:48.432Z,-0.74
2022-12-15T03:25:16.257Z,-0.85
2022-12-15T03:27:44.339Z,-0.79
2022-12-15T03:30:13.655Z,-0.89
2022-12-15T03:32:41.500Z,-0.79
2022-12-15T03:35:12.879Z,-0.82
2022-12-15T03:37:40.661Z,-0.81
2022-12-15T03:40:09.579Z,-0.87
2022-12-15T03:42:49.633Z,-0.98
2022-12-15T03:45:19.074Z,-0.82
2022-12-15T03:47:47.897Z,-0.58
2022-12-15T03:50:20.155Z,-1.04
2022-12-15T03:52:52.165Z,-1.11
2022-12-15T03:55:20.116Z,-1.12
2022-12-15T03:57:48.149Z,-0.77
2022-12-15T04:00:18.483Z,-0.63
2022-12-15T04:02:47.298Z,-0.80
2022-12-15T04:05:23.239Z,-0.89
2022-12-15T04:07:51.086Z,-0.88
2022-12-15T04:10:19.308Z,-0.79
2022-12-15T04:12:47.244Z,-1.06
2022-12-15T04:15:15.468Z,-1.13
2022-12-15T04:17:43.483Z,-1.17
2022-12-15T04:20:11.976Z,-1.14
2022-12-15T04:22:43.022Z,-1.06
2022-12-15T04:25:30.992Z,-1.04
2022-12-15T04:28:17.669Z,-1.23
2022-12-15T04:31:06.850Z,-1.17
2022-12-15T04:33:52.457Z,-0.98
2022-12-15T04:36:37.859Z,-0.97
2022-12-15T04:39:24.656Z,-0.91
2022-12-15T04:42:10.906Z,-0.94
2022-12-15T04:44:56.360Z,-0.95
2022-12-15T04:47:41.817Z,-1.00
2022-12-15T04:50:27.807Z,-1.16
2022-12-15T04:53:13.261Z,-1.08
2022-12-15T04:56:00.072Z,-1.25
2022-12-15T04:58:45.525Z,-1.18
2022-12-15T05:01:30.961Z,-1.30
2022-12-15T05:04:16.305Z,-1.32
2022-12-15T05:07:01.502Z,-1.35
2022-12-15T05:09:46.934Z,-1.22
2022-12-15T05:12:33.448Z,-1.00
2022-12-15T05:15:18.794Z,-1.04
2022-12-15T05:18:04.243Z,-1.07
2022-12-15T05:20:50.203Z,-1.04
2022-12-15T05:23:35.745Z,-1.11
2022-12-15T05:26:21.514Z,-1.20
2022-12-15T05:29:08.115Z,-1.35
2022-12-15T05:31:47.811Z,-1.40
2022-12-15T05:34:16.299Z,-1.27
2022-12-15T05:36:44.178Z,-1.24
2022-12-15T05:39:12.019Z,-1.23
2022-12-15T05:41:39.757Z,-1.28
2022-12-15T05:44:09.350Z,-1.35
2022-12-15T05:46:37.951Z,-1.41
2022-12-15T05:49:09.187Z,-1.31
2022-12-15T05:51:40.360Z,-1.24
2022-12-15T05:54:08.716Z,-1.15
2022-12-15T05:56:37.377Z,-0.98
2022-12-15T05:59:05.452Z,-1.08
2022-12-15T06:01:35.422Z,-1.04
2022-12-15T06:04:03.435Z,-1.19
2022-12-15T06:06:31.276Z,-1.11
2022-12-15T06:08:59.526Z,-1.01
2022-12-15T06:11:27.606Z,-1.09
2022-12-15T06:13:57.831Z,-0.99
2022-12-15T06:16:27.986Z,-0.75
2022-12-15T06:18:58.654Z,-0.85
2022-12-15T06:21:29.034Z,-1.02
2022-12-15T06:23:57.961Z,-1.00
2022-12-15T06:26:27.255Z,-1.14
2022-12-15T06:28:56.951Z,-1.20
2022-12-15T06:31:25.748Z,-1.22
2022-12-15T06:34:01.051Z,-1.15
2022-12-15T06:36:31.678Z,-1.18
2022-12-15T06:39:00.537Z,-1.26
2022-12-15T06:41:30.404Z,-1.02
2022-12-15T06:43:58.779Z,-1.02
2022-12-15T06:46:28.264Z,-1.22
2022-12-15T06:48:56.688Z,-1.19
2022-12-15T06:51:24.929Z,-1.30
2022-12-15T06:53:55.522Z,-1.24
2022-12-15T06:56:30.705Z,-1.20
2022-12-15T06:59:01.590Z,-1.21
2022-12-15T07:01:29.522Z,-1.32
2022-12-15T07:03:59.901Z,-1.31
2022-12-15T07:06:29.580Z,-1.19
2022-12-15T07:08:59.049Z,-1.23
2022-12-15T07:11:26.825Z,-1.13
2022-12-15T07:13:55.365Z,-1.12
2022-12-15T07:16:24.778Z,-1.07
2022-12-15T07:18:52.673Z,-1.16
2022-12-15T07:21:20.617Z,-1.00
2022-12-15T07:23:56.940Z,-0.84
2022-12-15T07:26:30.106Z,-1.22
2022-12-15T07:28:57.995Z,-1.27
2022-12-15T07:31:25.921Z,-1.19
2022-12-15T07:33:54.945Z,-1.31
2022-12-15T07:36:23.213Z,-1.20
2022-12-15T07:38:51.840Z,-1.05
2022-12-15T07:41:20.947Z,-1.18
2022-12-15T07:43:50.333Z,-1.19
2022-12-15T07:46:18.669Z,-1.16
2022-12-15T07:48:50.358Z,-1.04
2022-12-15T07:51:20.738Z,-0.76
2022-12-15T07:53:50.552Z,-0.92
2022-12-15T07:56:21.935Z,-0.72
2022-12-15T07:58:52.054Z,-0.70
2022-12-15T08:01:20.056Z,-0.57
2022-12-15T08:03:49.726Z,-0.60
2022-12-15T08:06:17.615Z,-0.60
2022-12-15T08:08:50.424Z,-0.80
2022-12-15T08:11:20.404Z,-0.91
2022-12-15T08:14:06.946Z,-1.00
2022-12-15T08:16:38.119Z,-0.84
2022-12-15T08:19:06.740Z,-0.64
2022-12-15T08:21:35.201Z,-0.66
2022-12-15T08:24:04.312Z,-0.59
2022-12-15T08:26:32.589Z,-0.68
2022-12-15T08:29:31.865Z,-0.64
2022-12-15T08:31:53.372Z,-0.70
2022-12-15T08:34:21.418Z,-0.65
2022-12-15T08:36:49.212Z,-0.54
2022-12-15T08:39:17.517Z,-0.42
2022-12-15T08:41:45.776Z,-0.65
2022-12-15T08:44:13.549Z,-0.67
2022-12-15T08:46:41.364Z,-0.29
2022-12-15T08:49:14.187Z,0.04
2022-12-15T08:51:44.406Z,-0.14
2022-12-15T08:54:12.327Z,-0.14
2022-12-15T08:56:42.948Z,-0.41
2022-12-15T08:59:10.835Z,-0.46
2022-12-15T09:01:40.279Z,-0.62
2022-12-15T09:04:10.050Z,-0.12
2022-12-15T09:06:37.965Z,0.07
2022-12-15T09:09:08.802Z,0.14
2022-12-15T09:11:36.697Z,0.25
2022-12-15T09:14:05.188Z,0.42
2022-12-15T09:16:33.155Z,0.54
2022-12-15T09:19:01.289Z,0.40
2022-12-15T09:21:32.063Z,0.74
2022-12-15T09:24:02.020Z,0.49
2022-12-15T09:26:32.305Z,0.64
2022-12-15T09:29:01.773Z,0.61
2022-12-15T09:31:31.396Z,0.71
2022-12-15T09:34:01.723Z,0.75
2022-12-15T09:36:32.642Z,0.64
2022-12-15T09:39:02.893Z,0.55
2022-12-15T09:41:33.360Z,0.19
2022-12-15T09:44:05.248Z,0.51
2022-12-15T09:46:49.974Z,0.61
2022-12-15T09:49:26.422Z,0.92
2022-12-15T09:52:07.198Z,0.86
2022-12-15T09:54:38.784Z,0.64
2022-12-15T09:57:11.516Z,0.42
2022-12-15T09:59:46.041Z,0.36
2022-12-15T10:02:29.559Z,0.38
2022-12-15T10:05:06.648Z,0.31
2022-12-15T10:07:44.246Z,0.64
2022-12-15T10:10:18.994Z,0.95
2022-12-15T10:12:59.874Z,0.73
2022-12-15T10:15:38.314Z,0.77
2022-12-15T10:18:13.911Z,1.01
2022-12-15T10:20:41.788Z,0.54
2022-12-15T10:23:15.139Z,0.52
2022-12-15T10:25:47.871Z,0.43
2022-12-15T10:28:51.200Z,0.31
2022-12-15T10:31:25.791Z,0.29
2022-12-15T10:33:58.836Z,0.06
2022-12-15T10:36:26.830Z,-0.03
2022-12-15T10:38:56.084Z,0.02
2022-12-15T10:41:25.797Z,0.02
2022-12-15T10:43:54.921Z,-0.07
2022-12-15T10:46:25.484Z,0.14
2022-12-15T10:48:55.162Z,0.25
2022-12-15T10:51:27.342Z,0.24
2022-12-15T10:54:06.421Z,-0.02
2022-12-15T10:56:35.384Z,-0.17
2022-12-15T10:59:05.220Z,-0.11
2022-12-15T11:01:35.908Z,0.03
2022-12-15T11:04:04.112Z,0.08
2022-12-15T11:06:34.182Z,0.22
2022-12-15T11:09:25.112Z,0.35
2022-12-15T11:12:13.570Z,0.09
2022-12-15T11:14:46.073Z,0.16
2022-12-15T11:17:17.936Z,0.19
2022-12-15T11:22:45.598Z,0.18
2022-12-15T11:25:35.894Z,0.42
2022-12-15T11:28:09.493Z,0.35
2022-12-15T11:30:43.816Z,0.44
2022-12-15T11:33:11.700Z,0.64
2022-12-15T11:35:58.762Z,0.56
2022-12-15T11:38:33.503Z,0.53
2022-12-15T11:41:09.969Z,0.24
2022-12-15T11:44:06.738Z,0.29
2022-12-15T11:46:42.495Z,0.37
2022-12-15T11:49:40.747Z,0.43
2022-12-15T11:52:17.120Z,0.45
2022-12-15T11:54:49.760Z,0.49
2022-12-15T11:57:53.006Z,0.62
2022-12-15T12:00:23.417Z,0.30
2022-12-15T12:03:02.421Z,0.39
2022-12-15T12:05:45.537Z,0.13
2022-12-15T12:08:36.519Z,0.14
2022-12-15T12:11:12.272Z,0.26
2022-12-15T12:13:51.252Z,0.32
2022-12-15T12:16:30.232Z,0.30
2022-12-15T12:19:03.456Z,0.45
2022-12-15T12:21:36.163Z,0.33
2022-12-15T12:24:11.681Z,0.41
2022-12-15T12:26:44.811Z,0.29
2022-12-15T12:29:19.820Z,0.23
2022-12-15T12:32:03.874Z,0.30
2022-12-15T12:34:42.704Z,0.55
2022-12-15T12:37:18.125Z,0.54
2022-12-15T12:39:46.566Z,0.59
2022-12-15T12:42:21.362Z,0.56
2022-12-15T12:44:50.771Z,0.40
2022-12-15T12:47:23.616Z,0.27
2022-12-15T12:49:55.548Z,0.52
2022-12-15T12:52:26.849Z,0.16
2022-12-15T12:54:59.801Z,0.31
2022-12-15T12:57:36.049Z,0.22
2022-12-15T13:00:30.903Z,0.42
2022-12-15T13:03:18.928Z,0.11
2022-12-15T13:05:52.182Z,-0.07
2022-12-15T13:08:45.196Z,-0.03
2022-12-15T13:11:46.528Z,-0.29
2022-12-15T13:17:26.528Z,0.18
2022-12-15T13:20:28.820Z,0.31
2022-12-15T13:23:41.154Z,0.01
2022-12-15T13:26:19.252Z,0.26
2022-12-15T13:28:52.490Z,-0.17
2022-12-15T13:31:30.135Z,-0.36
2022-12-15T13:34:19.316Z,-0.06
2022-12-15T13:36:55.473Z,0.24
2022-12-15T13:39:56.374Z,0.38
2022-12-15T13:42:38.756Z,0.50
2022-12-15T13:45:43.139Z,0.35
2022-12-15T13:48:23.103Z,0.42
2022-12-15T13:50:58.291Z,0.42
2022-12-15T13:53:29.780Z,0.52
2022-12-15T13:56:34.158Z,0.18
2022-12-15T13:59:14.062Z,0.34
2022-12-15T14:01:51.271Z,0.29
2022-12-15T14:04:20.244Z,0.06
2022-12-15T14:06:51.055Z,0.04
2022-12-15T14:09:28.436Z,-0.20
2022-12-15T14:11:56.855Z,-0.07
2022-12-15T14:14:29.613Z,0.28
2022-12-15T14:17:02.044Z,0.31
2022-12-15T14:19:39.943Z,0.03
2022-12-15T14:22:27.959Z,0.09
2022-12-15T14:25:02.240Z,0.17
2022-12-15T14:27:34.392Z,0.21
2022-12-15T14:30:24.080Z,0.18
2022-12-15T14:32:56.373Z,0.19
2022-12-15T14:35:29.865Z,-0.01
2022-12-15T14:38:01.043Z,0.07
2022-12-15T14:40:38.839Z,-0.10
2022-12-15T14:43:17.038Z,-0.19
2022-12-15T14:45:46.398Z,-0.17
2022-12-15T14:48:42.268Z,-0.41
2022-12-15T14:51:12.706Z,-0.32
2022-12-15T14:53:43.174Z,-0.36
2022-12-15T14:56:30.731Z,-0.49
2022-12-15T14:59:03.953Z,-0.53
2022-12-15T15:01:37.052Z,-0.83
2022-12-15T15:03:09.090Z,0.25
2022-12-15T15:03:15.541Z,0.11
2022-12-15T15:04:07.385Z,-0.78
2022-12-15T15:06:38.502Z,-0.72
2022-12-15T15:09:19.883Z,-0.85
2022-12-15T15:11:51.007Z,-0.97
2022-12-15T15:14:24.593Z,-1.17
2022-12-15T15:17:05.226Z,-1.07
2022-12-15T15:19:39.359Z,-1.07
2022-12-15T15:22:25.268Z,-0.97
2022-12-15T15:24:53.401Z,-1.05
2022-12-15T15:27:33.718Z,-1.12
2022-12-15T15:30:15.421Z,-1.04
2022-12-15T15:32:56.566Z,-0.99
2022-12-15T15:35:27.055Z,-1.20
2022-12-15T15:38:02.601Z,-1.18
2022-12-15T15:40:31.474Z,-1.05
2022-12-15T15:42:59.383Z,-1.01
2022-12-15T15:45:27.293Z,-0.92
2022-12-15T15:47:56.665Z,-0.96
2022-12-15T15:50:30.425Z,-0.97
2022-12-15T15:52:59.219Z,-0.94
2022-12-15T15:55:33.677Z,-0.95
2022-12-15T15:58:13.217Z,-0.86
2022-12-15T16:00:41.550Z,-0.86
2022-12-15T16:03:11.285Z,-0.94
2022-12-15T16:05:40.672Z,-0.89
2022-12-15T16:08:10.485Z,-0.89
2022-12-15T16:10:38.492Z,-0.96
2022-12-15T16:13:07.964Z,-0.92
2022-12-15T16:15:35.919Z,-0.80
2022-12-15T16:18:03.801Z,-0.76
2022-12-15T16:20:35.048Z,-0.85
2022-12-15T16:23:05.739Z,-0.84
2022-12-15T16:25:43.835Z,-0.97
2022-12-15T16:28:18.552Z,-0.99
2022-12-15T16:30:47.727Z,-0.99
2022-12-15T16:33:15.966Z,-0.84
2022-12-15T16:35:48.125Z,-0.85
2022-12-15T16:38:19.484Z,-0.85
2022-12-15T16:40:47.519Z,-0.90
2022-12-15T16:43:17.459Z,-1.03
2022-12-15T16:45:47.575Z,-1.02
2022-12-15T16:48:16.028Z,-0.90
2022-12-15T16:50:50.671Z,-0.91
2022-12-15T16:53:24.173Z,-0.94
2022-12-15T16:55:55.287Z,-0.98
2022-12-15T16:58:25.104Z,-0.94
2022-12-15T17:00:53.783Z,-0.92
2022-12-15T17:03:25.745Z,-0.94
2022-12-15T17:05:57.411Z,-0.87
2022-12-15T17:08:29.041Z,-0.84
2022-12-15T17:10:57.451Z,-0.85
2022-12-15T17:13:36.536Z,-0.91
2022-12-15T17:16:07.010Z,-0.92
2022-12-15T17:18:35.682Z,-0.87
2022-12-15T17:21:11.515Z,-0.93
2022-12-15T17:23:41.163Z,-0.82
2022-12-15T17:26:25.795Z,-1.04
2022-12-15T17:28:56.513Z,-0.99
2022-12-15T17:31:31.514Z,-1.05
2022-12-15T17:34:03.704Z,-0.91
2022-12-15T17:36:33.009Z,-1.03
2022-12-15T17:39:02.383Z,-0.92
2022-12-15T17:41:58.878Z,-0.97
2022-12-15T17:44:39.263Z,-0.88
2022-12-15T17:47:09.300Z,-0.99
2022-12-15T17:49:38.952Z,-1.03
2022-12-15T17:52:21.915Z,-1.09
2022-12-15T17:54:50.358Z,-1.12
2022-12-15T17:57:20.620Z,-1.07
2022-12-15T17:59:48.594Z,-1.05
2022-12-15T18:02:16.982Z,-0.97
2022-12-15T18:04:45.861Z,-0.89
2022-12-15T18:07:22.418Z,-0.91
2022-12-15T18:09:51.437Z,-1.00
2022-12-15T18:12:21.174Z,-1.02
2022-12-15T18:14:49.413Z,-0.97
2022-12-15T18:17:17.436Z,-0.99
2022-12-15T18:19:45.591Z,-0.92
2022-12-15T18:22:15.458Z,-0.93
2022-12-15T18:24:44.852Z,-0.88
2022-12-15T18:27:20.403Z,-0.98
2022-12-15T18:29:48.564Z,-0.94
2022-12-15T18:32:16.975Z,-0.95
2022-12-15T18:34:45.333Z,-0.88
2022-12-15T18:37:17.086Z,-0.94
2022-12-15T18:39:46.592Z,-0.96
2022-12-15T18:42:16.455Z,-0.93
2022-12-15T18:44:47.342Z,-0.92
2022-12-15T18:47:17.296Z,-0.90
2022-12-15T18:49:45.427Z,-0.86
2022-12-15T18:52:18.350Z,-0.88
2022-12-15T18:54:48.593Z,-0.91
2022-12-15T18:57:32.485Z,-0.88
2022-12-15T19:00:08.490Z,-0.92
2022-12-15T19:02:36.740Z,-0.94
2022-12-15T19:05:05.249Z,-0.92
2022-12-15T19:07:33.447Z,-0.97
2022-12-15T19:10:02.676Z,-0.95
2022-12-15T19:12:30.723Z,-0.88
2022-12-15T19:14:58.549Z,-0.88
2022-12-15T19:17:43.680Z,-0.87
2022-12-15T19:20:35.030Z,-0.86
2022-12-15T19:23:03.171Z,-0.83
2022-12-15T19:25:33.271Z,-0.81
2022-12-15T19:28:01.904Z,-0.73
2022-12-15T19:30:36.910Z,-0.76
2022-12-15T19:33:08.201Z,-0.73
2022-12-15T19:35:37.973Z,-0.74
2022-12-15T19:38:06.657Z,-0.75
2022-12-15T19:40:37.566Z,-0.71
2022-12-15T19:43:06.498Z,-0.68
2022-12-15T19:45:34.867Z,-0.77
2022-12-15T19:48:02.800Z,-0.75
2022-12-15T19:50:33.661Z,-0.71
2022-12-15T19:53:04.608Z,-0.73
2022-12-15T19:55:36.982Z,-0.73
2022-12-15T19:58:26.748Z,-0.72
2022-12-15T20:00:56.987Z,-0.62
2022-12-15T20:03:25.344Z,-0.58
2022-12-15T20:05:55.616Z,-0.57
2022-12-15T20:08:26.556Z,-0.61
2022-12-15T20:10:59.198Z,-0.56
2022-12-15T20:13:27.440Z,-0.57
2022-12-15T20:15:56.410Z,-0.64
2022-12-15T20:18:24.313Z,-0.58
2022-12-15T20:20:52.611Z,-0.60
2022-12-15T20:23:26.283Z,-0.52
2022-12-15T20:25:56.981Z,-0.49
2022-12-15T20:28:26.330Z,-0.42
2022-12-15T20:30:55.988Z,-0.39
2022-12-15T20:33:24.604Z,-0.43
2022-12-15T20:35:52.985Z,-0.32
2022-12-15T20:38:29.620Z,-0.37
2022-12-15T20:40:59.807Z,-0.24
2022-12-15T20:43:31.064Z,-0.31
2022-12-15T20:46:04.140Z,-0.27
2022-12-15T20:48:35.151Z,-0.33
2022-12-15T20:51:07.530Z,-0.38
2022-12-15T20:53:37.646Z,-0.35
2022-12-15T20:56:07.607Z,-0.42
2022-12-15T20:58:41.733Z,-0.36
2022-12-15T21:01:19.338Z,-0.50
2022-12-15T21:03:50.482Z,-0.42
2022-12-15T21:06:20.591Z,-0.40
2022-12-15T21:08:49.367Z,-0.41
2022-12-15T21:11:22.131Z,-0.35
2022-12-15T21:13:52.239Z,-0.31
2022-12-15T21:16:23.281Z,-0.24
2022-12-15T21:19:18.568Z,-0.30
2022-12-15T21:21:43.051Z,-0.32
2022-12-15T21:24:16.601Z,-0.38
2022-12-15T21:26:46.674Z,-0.23
2022-12-15T21:29:16.056Z,-0.25
2022-12-15T21:31:44.863Z,-0.23
2022-12-15T21:34:13.568Z,-0.29
2022-12-15T21:36:43.995Z,-0.18
2022-12-15T21:39:16.977Z,-0.22
2022-12-15T21:41:46.247Z,-0.15
2022-12-15T21:44:15.067Z,-0.12
2022-12-15T21:46:43.416Z,-0.10
2022-12-15T21:49:18.496Z,-0.14
2022-12-15T21:51:48.432Z,-0.25
2022-12-15T21:54:19.338Z,-0.19
2022-12-15T21:56:49.722Z,-0.14
2022-12-15T21:59:20.674Z,-0.26
2022-12-15T22:01:49.766Z,-0.15
2022-12-15T22:04:21.684Z,-0.16
2022-12-15T22:06:51.118Z,-0.26
2022-12-15T22:09:21.308Z,-0.16
2022-12-15T22:11:53.906Z,-0.22
2022-12-15T22:14:26.488Z,-0.16
2022-12-15T22:16:55.053Z,-0.12
2022-12-15T22:19:23.301Z,-0.01
2022-12-15T22:21:52.377Z,-0.13
2022-12-15T22:24:20.888Z,-0.09
2022-12-15T22:26:50.154Z,-0.07
2022-12-15T22:29:22.291Z,-0.06
2022-12-15T22:31:51.819Z,-0.08
2022-12-15T22:34:21.458Z,-0.08
2022-12-15T22:36:50.458Z,-0.03
2022-12-15T22:39:18.961Z,-0.05
2022-12-15T22:41:54.068Z,0.07
2022-12-15T22:44:27.719Z,0.11
2022-12-15T22:46:57.769Z,0.07
2022-12-15T22:49:30.159Z,0.08
2022-12-15T22:51:59.163Z,0.11
2022-12-15T22:54:28.898Z,0.18
2022-12-15T22:57:04.101Z,0.05
2022-12-15T22:59:36.844Z,0.00
2022-12-15T23:02:05.157Z,0.06
2022-12-15T23:04:33.387Z,0.14
2022-12-15T23:07:03.608Z,0.16
2022-12-15T23:09:32.069Z,0.16
2022-12-15T23:12:00.741Z,0.16
2022-12-15T23:14:42.779Z,0.24
2022-12-15T23:17:12.043Z,0.22
2022-12-15T23:19:44.629Z,0.19
2022-12-15T23:22:13.269Z,0.03
2022-12-15T23:24:41.195Z,0.17
2022-12-15T23:27:12.813Z,0.09
2022-12-15T23:29:43.908Z,0.16
2022-12-15T23:32:13.941Z,3.62
2022-12-15T23:34:42.362Z,4.20
2022-12-15T23:37:10.296Z,3.60
2022-12-15T23:39:39.579Z,2.86
2022-12-15T23:42:07.329Z,1.82
2022-12-15T23:44:37.228Z,1.04
2022-12-15T23:47:05.377Z,0.67
2022-12-15T23:49:33.190Z,0.55
2022-12-15T23:52:00.995Z,0.46
2022-12-15T23:54:29.042Z,0.50
2022-12-15T23:56:56.872Z,0.49
2022-12-15T23:59:24.618Z,0.48
